createdAt,value
2023-05-19T00:02:09.691Z,14.90
2023-05-19T00:04:37.922Z,13.20
2023-05-19T00:07:05.794Z,13.30
2023-05-19T00:09:33.368Z,12.50
2023-05-19T00:12:01.285Z,13.70
2023-05-19T00:14:29.283Z,13.70
2023-05-19T00:16:58.144Z,13.00
2023-05-19T00:19:26.538Z,12.30
2023-05-19T00:21:53.875Z,12.40
2023-05-19T00:24:21.246Z,12.70
2023-05-19T00:26:48.681Z,11.60
2023-05-19T00:29:18.906Z,12.10
2023-05-19T00:31:46.958Z,12.20
2023-05-19T00:34:14.440Z,12.00
2023-05-19T00:36:41.994Z,11.90
2023-05-19T00:39:09.244Z,11.20
2023-05-19T00:41:36.832Z,10.70
2023-05-19T00:44:04.444Z,10.00
2023-05-19T00:46:31.559Z,11.50
2023-05-19T00:48:59.289Z,12.40
2023-05-19T00:51:27.075Z,12.00
2023-05-19T00:53:54.477Z,11.30
2023-05-19T00:56:21.943Z,12.60
2023-05-19T00:58:53.508Z,11.60
2023-05-19T01:01:21.881Z,12.80
2023-05-19T01:03:50.713Z,13.10
2023-05-19T01:06:19.482Z,14.70
2023-05-19T01:08:47.122Z,14.00
2023-05-19T01:11:14.481Z,13.40
2023-05-19T01:13:42.178Z,13.90
2023-05-19T01:16:14.806Z,13.70
2023-05-19T01:19:11.151Z,13.30
2023-05-19T01:21:54.090Z,13.10
2023-05-19T01:24:59.108Z,12.80
2023-05-19T01:28:05.272Z,11.90
2023-05-19T01:30:43.178Z,12.20
2023-05-19T01:33:14.426Z,13.20
2023-05-19T01:35:42.742Z,12.70
2023-05-19T01:38:11.121Z,14.50
2023-05-19T01:40:42.031Z,12.80
2023-05-19T01:43:12.145Z,13.00
2023-05-19T01:45:39.509Z,12.70
2023-05-19T01:48:09.244Z,11.90
2023-05-19T01:50:39.978Z,11.10
2023-05-19T01:53:07.250Z,10.70
2023-05-19T01:55:44.891Z,11.10
2023-05-19T01:58:15.414Z,11.20
2023-05-19T02:01:14.434Z,12.00
2023-05-19T02:04:00.271Z,12.20
2023-05-19T02:06:39.632Z,11.00
2023-05-19T02:09:26.706Z,10.70
2023-05-19T02:12:04.753Z,12.40
2023-05-19T02:14:46.074Z,15.30
2023-05-19T02:17:13.793Z,12.90
2023-05-19T02:19:41.659Z,13.20
2023-05-19T02:22:08.606Z,12.90
2023-05-19T02:24:37.799Z,17.20
2023-05-19T02:27:05.468Z,14.60
2023-05-19T02:29:32.613Z,18.10
2023-05-19T02:32:01.276Z,16.80
2023-05-19T02:34:28.356Z,18.40
2023-05-19T02:36:56.598Z,20.50
2023-05-19T02:39:23.479Z,20.40
2023-05-19T02:41:51.737Z,22.20
2023-05-19T02:44:18.990Z,22.20
2023-05-19T02:46:46.229Z,22.30
2023-05-19T02:49:13.394Z,22.90
2023-05-19T02:51:40.479Z,21.60
2023-05-19T02:54:07.605Z,19.80
2023-05-19T02:56:34.741Z,23.10
2023-05-19T02:59:02.075Z,23.60
2023-05-19T03:01:29.290Z,25.80
2023-05-19T03:03:56.773Z,20.90
2023-05-19T03:06:24.665Z,23.70
2023-05-19T03:08:51.746Z,27.40
2023-05-19T03:11:18.875Z,21.30
2023-05-19T03:13:46.633Z,21.00
2023-05-19T03:16:14.281Z,23.00
2023-05-19T03:18:42.215Z,23.70
2023-05-19T03:21:09.512Z,21.90
2023-05-19T03:23:36.922Z,21.80
2023-05-19T03:26:04.628Z,21.50
2023-05-19T03:28:31.818Z,21.20
2023-05-19T03:30:59.461Z,20.70
2023-05-19T03:33:30.213Z,18.90
2023-05-19T03:35:57.956Z,18.30
2023-05-19T03:38:25.921Z,19.70
2023-05-19T03:43:24.818Z,25.30
2023-05-19T03:45:58.135Z,27.10
2023-05-19T03:48:49.891Z,27.70
2023-05-19T03:51:23.439Z,28.50
2023-05-19T03:53:52.901Z,25.10
2023-05-19T03:56:23.436Z,23.80
2023-05-19T03:58:51.129Z,23.90
2023-05-19T04:01:19.136Z,26.40
2023-05-19T04:03:46.873Z,30.70
2023-05-19T04:06:14.043Z,28.60
2023-05-19T04:08:41.059Z,28.60
2023-05-19T04:11:08.045Z,33.20
2023-05-19T04:13:36.471Z,31.20
2023-05-19T04:16:03.599Z,30.80
2023-05-19T04:18:30.924Z,25.50
2023-05-19T04:20:58.169Z,23.80
2023-05-19T04:23:26.152Z,24.30
2023-05-19T04:25:54.805Z,19.90
2023-05-19T04:28:22.248Z,21.40
2023-05-19T04:30:51.063Z,21.00
2023-05-19T04:33:20.437Z,22.40
2023-05-19T04:35:50.559Z,19.60
2023-05-19T04:38:20.573Z,21.10
2023-05-19T04:40:50.509Z,18.90
2023-05-19T04:43:19.708Z,19.40
2023-05-19T04:45:50.523Z,17.20
2023-05-19T04:48:19.191Z,16.20
2023-05-19T04:50:49.086Z,15.70
2023-05-19T04:53:16.069Z,17.50
2023-05-19T04:55:43.318Z,16.40
2023-05-19T04:58:10.785Z,17.60
2023-05-19T05:00:38.030Z,14.10
2023-05-19T05:03:07.785Z,17.00
2023-05-19T05:38:11.998Z,9.10
2023-05-19T05:40:39.862Z,9.40
2023-05-19T05:43:09.452Z,9.30
2023-05-19T05:45:42.085Z,11.50
2023-05-19T05:48:10.284Z,10.60
2023-05-19T05:50:38.336Z,11.60
2023-05-19T05:53:07.236Z,10.90
2023-05-19T05:55:35.479Z,9.60
2023-05-19T05:58:03.985Z,9.90
2023-05-19T06:00:32.105Z,10.30
2023-05-19T06:03:00.303Z,10.90
2023-05-19T06:05:28.313Z,11.20
2023-05-19T06:07:57.292Z,10.60
2023-05-19T06:10:26.525Z,10.70
2023-05-19T06:12:53.950Z,10.00
2023-05-19T06:15:22.482Z,9.90
2023-05-19T06:20:31.008Z,10.50
2023-05-19T06:23:00.724Z,11.20
2023-05-19T06:25:28.583Z,11.40
2023-05-19T06:27:56.198Z,11.60
2023-05-19T06:30:23.974Z,13.10
2023-05-19T06:32:59.293Z,13.50
2023-05-19T06:35:27.074Z,13.80
2023-05-19T06:37:56.069Z,11.20
2023-05-19T06:40:23.928Z,11.20
2023-05-19T06:42:51.592Z,12.60
2023-05-19T06:45:33.192Z,12.00
2023-05-19T06:48:02.221Z,12.10
2023-05-19T06:50:30.237Z,12.00
2023-05-19T06:52:58.726Z,13.40
2023-05-19T06:55:26.546Z,12.50
2023-05-19T06:57:54.146Z,12.30
2023-05-19T07:00:23.818Z,10.20
2023-05-19T07:05:21.431Z,9.40
2023-05-19T07:07:52.692Z,9.00
2023-05-19T07:10:23.098Z,9.80
2023-05-19T07:12:50.888Z,8.30
2023-05-19T07:15:18.953Z,7.70
2023-05-19T07:17:46.745Z,7.50
2023-05-19T07:20:14.475Z,7.40
2023-05-19T07:22:41.924Z,6.90
2023-05-19T07:25:09.890Z,7.90
2023-05-19T07:27:37.610Z,7.30
2023-05-19T07:30:05.758Z,6.90
2023-05-19T07:32:33.394Z,6.20
2023-05-19T07:35:00.881Z,6.30
2023-05-19T07:37:28.322Z,5.60
2023-05-19T07:39:55.865Z,5.10
2023-05-19T07:42:23.777Z,5.10
2023-05-19T07:44:51.533Z,5.30
2023-05-19T07:47:18.985Z,5.90
2023-05-19T07:49:46.532Z,25.60
2023-05-19T07:52:14.273Z,33.40
2023-05-19T07:54:41.871Z,20.40
2023-05-19T07:57:09.383Z,15.70
2023-05-19T07:59:37.352Z,16.90
2023-05-19T08:02:05.359Z,8.00
2023-05-19T08:04:33.259Z,9.20
2023-05-19T08:07:00.951Z,6.00
2023-05-19T08:09:28.409Z,5.20
2023-05-19T08:11:56.382Z,7.10
2023-05-19T08:14:24.350Z,7.00
2023-05-19T08:16:52.024Z,4.40
2023-05-19T08:19:19.762Z,4.40
2023-05-19T08:21:48.769Z,5.40
2023-05-19T08:24:16.538Z,4.70
2023-05-19T08:26:44.600Z,4.80
2023-05-19T08:29:12.685Z,5.20
2023-05-19T08:31:41.190Z,6.50
2023-05-19T08:34:08.674Z,6.10
2023-05-19T08:36:36.208Z,4.60
2023-05-19T08:39:04.037Z,3.50
2023-05-19T08:41:31.501Z,3.50
2023-05-19T08:43:58.962Z,3.30
2023-05-19T08:46:27.103Z,4.00
2023-05-19T08:48:55.707Z,4.60
2023-05-19T08:51:41.942Z,3.70
2023-05-19T08:54:18.186Z,4.10
2023-05-19T08:56:46.047Z,3.80
2023-05-19T08:59:14.403Z,3.90
2023-05-19T09:01:43.552Z,4.50
2023-05-19T09:04:10.928Z,4.50
2023-05-19T09:06:41.341Z,6.30
2023-05-19T09:09:08.973Z,4.30
2023-05-19T09:11:37.950Z,5.70
2023-05-19T09:14:06.060Z,4.50
2023-05-19T09:16:34.271Z,3.80
2023-05-19T09:19:02.195Z,3.80
2023-05-19T09:21:32.893Z,4.20
2023-05-19T09:24:08.084Z,3.90
2023-05-19T09:26:40.344Z,5.30
2023-05-19T09:29:14.918Z,6.20
2023-05-19T09:31:52.448Z,7.40
2023-05-19T09:34:21.645Z,4.00
2023-05-19T09:36:53.878Z,4.30
2023-05-19T09:39:25.925Z,4.80
2023-05-19T09:41:54.351Z,5.60
2023-05-19T09:44:22.872Z,5.80
2023-05-19T09:46:54.148Z,5.10
2023-05-19T09:49:31.682Z,5.30
2023-05-19T09:52:02.434Z,5.30
2023-05-19T09:54:30.137Z,5.00
2023-05-19T09:57:04.150Z,5.20
2023-05-19T09:59:33.524Z,5.50
2023-05-19T10:02:01.603Z,7.40
2023-05-19T10:04:29.782Z,5.80
2023-05-19T10:07:01.217Z,8.00
2023-05-19T10:09:30.218Z,23.90
2023-05-19T10:11:58.335Z,26.70
2023-05-19T10:14:27.119Z,12.40
2023-05-19T10:16:58.063Z,14.20
2023-05-19T10:19:27.277Z,6.80
2023-05-19T10:21:55.507Z,6.80
2023-05-19T10:24:23.173Z,7.50
2023-05-19T10:27:17.450Z,10.10
2023-05-19T10:29:48.493Z,8.40
2023-05-19T10:32:18.794Z,8.80
2023-05-19T10:35:16.070Z,7.20
2023-05-19T10:37:53.779Z,8.40
2023-05-19T10:40:52.051Z,7.50
2023-05-19T10:44:08.257Z,7.50
2023-05-19T10:46:36.292Z,7.90
2023-05-19T10:49:04.093Z,9.80
2023-05-19T10:51:32.411Z,8.10
2023-05-19T10:54:03.410Z,9.50
2023-05-19T10:56:36.505Z,9.20
2023-05-19T10:59:04.154Z,8.80
2023-05-19T11:01:33.577Z,9.70
2023-05-19T11:04:16.073Z,9.80
2023-05-19T11:06:44.133Z,9.50
2023-05-19T11:09:14.068Z,8.40
2023-05-19T11:11:52.128Z,9.40
2023-05-19T11:14:21.293Z,9.30
2023-05-19T11:16:52.114Z,10.10
2023-05-19T11:19:29.350Z,9.10
2023-05-19T11:21:57.993Z,9.30
2023-05-19T11:24:44.906Z,9.70
2023-05-19T11:27:23.897Z,9.20
2023-05-19T11:29:52.171Z,8.80
2023-05-19T11:32:23.872Z,9.00
2023-05-19T11:34:51.906Z,9.80
2023-05-19T11:37:19.336Z,26.60
2023-05-19T11:39:47.646Z,20.70
2023-05-19T11:42:15.139Z,18.50
2023-05-19T11:44:46.455Z,14.10
2023-05-19T11:47:14.605Z,11.10
2023-05-19T11:49:46.027Z,15.20
2023-05-19T11:52:14.236Z,14.30
2023-05-19T11:54:44.560Z,9.80
2023-05-19T11:57:12.307Z,8.60
2023-05-19T11:59:44.280Z,9.60
2023-05-19T12:02:21.830Z,8.80
2023-05-19T12:04:52.090Z,9.80
2023-05-19T12:07:23.223Z,11.30
2023-05-19T12:09:52.037Z,10.40
2023-05-19T12:12:20.420Z,10.00
2023-05-19T12:14:50.732Z,9.40
2023-05-19T12:17:21.566Z,8.60
2023-05-19T12:19:49.377Z,9.60
2023-05-19T12:22:17.423Z,9.40
2023-05-19T12:24:45.524Z,8.90
2023-05-19T12:27:20.813Z,9.10
2023-05-19T12:29:54.941Z,8.70
2023-05-19T12:32:26.628Z,8.60
2023-05-19T12:34:55.908Z,8.40
2023-05-19T12:37:26.605Z,9.10
2023-05-19T12:42:22.955Z,8.70
2023-05-19T12:44:52.758Z,8.60
2023-05-19T12:47:20.645Z,9.10
2023-05-19T12:50:01.308Z,9.70
2023-05-19T12:55:01.637Z,10.10
2023-05-19T12:57:32.894Z,10.70
2023-05-19T13:02:29.079Z,9.70
2023-05-19T13:04:59.155Z,9.90
2023-05-19T13:07:26.762Z,11.50
2023-05-19T13:09:54.887Z,14.70
2023-05-19T13:12:22.672Z,15.50
2023-05-19T13:14:50.317Z,18.10
2023-05-19T13:17:18.382Z,19.50
2023-05-19T13:19:46.507Z,15.30
2023-05-19T13:22:14.424Z,12.60
2023-05-19T13:24:41.983Z,14.10
2023-05-19T13:27:09.818Z,10.10
2023-05-19T13:29:38.050Z,9.80
2023-05-19T13:32:06.346Z,11.00
2023-05-19T13:34:33.963Z,8.70
2023-05-19T13:37:01.851Z,9.10
2023-05-19T13:39:30.107Z,9.10
2023-05-19T13:41:58.552Z,8.60
2023-05-19T13:44:26.450Z,8.90
2023-05-19T13:46:54.138Z,10.40
2023-05-19T13:49:21.977Z,11.00
2023-05-19T13:51:50.268Z,11.00
2023-05-19T13:54:18.428Z,8.40
2023-05-19T13:56:50.005Z,10.30
2023-05-19T13:59:17.760Z,9.60
2023-05-19T14:01:45.993Z,9.50
2023-05-19T14:04:14.610Z,12.80
2023-05-19T14:06:42.470Z,11.00
2023-05-19T14:09:10.441Z,9.40
2023-05-19T14:11:38.106Z,9.90
2023-05-19T14:14:06.004Z,13.40
2023-05-19T14:16:34.573Z,10.50
2023-05-19T14:19:03.600Z,16.30
2023-05-19T14:21:31.613Z,12.00
2023-05-19T14:23:59.584Z,9.10
2023-05-19T14:26:28.632Z,10.00
2023-05-19T14:28:59.726Z,10.30
2023-05-19T14:31:27.223Z,10.20
2023-05-19T14:33:55.549Z,10.70
2023-05-19T14:36:23.314Z,35.60
2023-05-19T14:38:50.984Z,11.30
2023-05-19T14:41:18.642Z,10.20
2023-05-19T14:43:47.088Z,9.50
2023-05-19T14:46:16.085Z,10.00
2023-05-19T14:48:43.488Z,8.90
2023-05-19T14:51:11.130Z,9.40
2023-05-19T14:53:38.788Z,11.40
2023-05-19T14:56:07.578Z,11.80
2023-05-19T14:58:35.266Z,13.00
2023-05-19T15:01:02.827Z,24.10
2023-05-19T15:03:31.116Z,25.90
2023-05-19T15:05:58.843Z,16.50
2023-05-19T15:08:26.727Z,13.10
2023-05-19T15:10:54.876Z,10.30
2023-05-19T15:13:22.690Z,10.40
2023-05-19T15:16:08.270Z,10.20
2023-05-19T15:18:44.233Z,11.20
2023-05-19T15:21:13.210Z,10.30
2023-05-19T15:23:41.343Z,9.20
2023-05-19T15:26:09.108Z,36.30
2023-05-19T15:28:36.560Z,13.50
2023-05-19T15:31:04.244Z,10.30
2023-05-19T15:33:32.202Z,10.90
2023-05-19T15:35:59.958Z,9.90
2023-05-19T15:38:29.233Z,11.80
2023-05-19T15:40:57.743Z,14.30
2023-05-19T15:43:25.707Z,17.40
2023-05-19T15:45:55.466Z,15.30
2023-05-19T15:48:23.796Z,14.20
2023-05-19T15:50:52.381Z,12.70
2023-05-19T15:53:20.623Z,10.80
2023-05-19T15:55:48.321Z,9.60
2023-05-19T15:58:17.150Z,9.60
2023-05-19T16:00:44.667Z,10.50
2023-05-19T16:03:13.281Z,10.30
2023-05-19T16:05:43.675Z,9.80
2023-05-19T16:08:11.239Z,9.90
2023-05-19T16:10:39.004Z,24.20
2023-05-19T16:13:06.615Z,24.90
2023-05-19T16:15:35.913Z,14.80
2023-05-19T16:18:03.679Z,19.70
2023-05-19T16:20:31.740Z,13.80
2023-05-19T16:22:59.789Z,11.10
2023-05-19T16:25:27.634Z,8.90
2023-05-19T16:27:55.393Z,9.80
2023-05-19T16:30:23.465Z,9.20
2023-05-19T16:32:51.083Z,8.80
2023-05-19T16:35:18.714Z,9.30
2023-05-19T16:37:46.552Z,8.70
2023-05-19T16:40:14.315Z,9.80
2023-05-19T16:42:42.698Z,15.40
2023-05-19T16:45:10.773Z,14.20
2023-05-19T16:47:38.708Z,14.70
2023-05-19T16:50:07.711Z,11.70
2023-05-19T16:52:37.063Z,11.20
2023-05-19T16:55:09.247Z,11.00
2023-05-19T16:57:36.953Z,10.90
2023-05-19T17:00:05.031Z,10.00
2023-05-19T17:02:33.744Z,8.60
2023-05-19T17:05:01.480Z,10.20
2023-05-19T17:07:29.682Z,13.80
2023-05-19T17:09:57.478Z,13.00
2023-05-19T17:12:25.618Z,10.70
2023-05-19T17:14:54.995Z,10.50
2023-05-19T17:17:22.752Z,10.30
2023-05-19T17:19:50.621Z,9.90
2023-05-19T17:22:18.109Z,10.30
2023-05-19T17:24:46.144Z,19.10
2023-05-19T17:27:13.705Z,21.20
2023-05-19T17:29:41.366Z,29.90
2023-05-19T17:32:08.848Z,17.60
2023-05-19T17:34:36.814Z,13.10
2023-05-19T17:37:04.726Z,20.00
2023-05-19T17:39:32.317Z,16.50
2023-05-19T17:42:00.377Z,13.30
2023-05-19T17:44:27.845Z,10.90
2023-05-19T17:46:55.471Z,34.80
2023-05-19T17:49:24.706Z,28.30
2023-05-19T17:51:52.811Z,40.40
2023-05-19T17:54:21.622Z,14.90
2023-05-19T17:56:49.165Z,12.40
2023-05-19T17:59:17.250Z,11.60
2023-05-19T18:01:45.146Z,11.90
2023-05-19T18:04:15.953Z,11.60
2023-05-19T18:09:13.310Z,11.20
2023-05-19T18:11:41.154Z,10.50
2023-05-19T18:14:08.799Z,11.50
2023-05-19T18:16:36.213Z,10.60
2023-05-19T18:19:03.840Z,11.00
2023-05-19T18:21:31.779Z,10.70
2023-05-19T18:24:03.330Z,24.60
2023-05-19T18:26:31.815Z,17.00
2023-05-19T18:29:03.010Z,46.00
2023-05-19T18:33:58.174Z,15.40
2023-05-19T18:36:26.042Z,13.40
2023-05-19T18:38:55.392Z,13.10
2023-05-19T18:41:23.318Z,12.50
2023-05-19T18:43:50.875Z,23.50
2023-05-19T18:46:18.691Z,26.00
2023-05-19T18:48:46.441Z,21.20
2023-05-19T18:51:16.311Z,17.30
2023-05-19T18:53:43.977Z,17.40
2023-05-19T18:56:12.046Z,17.10
2023-05-19T18:58:39.505Z,14.60
2023-05-19T19:01:07.370Z,14.50
2023-05-19T19:03:34.867Z,15.20
2023-05-19T19:06:02.591Z,14.90
2023-05-19T19:08:34.758Z,17.90
2023-05-19T19:11:02.437Z,18.30
2023-05-19T19:13:30.178Z,15.70
2023-05-19T19:15:57.845Z,16.30
2023-05-19T19:18:26.445Z,16.30
2023-05-19T19:20:55.831Z,13.20
2023-05-19T19:23:24.206Z,13.80
2023-05-19T19:25:51.682Z,14.40
2023-05-19T19:28:19.327Z,13.00
2023-05-19T19:30:47.916Z,12.10
2023-05-19T19:33:16.028Z,13.30
2023-05-19T19:35:46.982Z,11.70
2023-05-19T19:38:14.722Z,12.70
2023-05-19T19:40:42.286Z,13.00
2023-05-19T19:43:10.003Z,12.90
2023-05-19T19:45:39.810Z,11.90
2023-05-19T19:48:07.844Z,11.10
2023-05-19T19:50:35.712Z,12.30
2023-05-19T19:53:03.731Z,11.30
2023-05-19T19:55:31.094Z,11.90
2023-05-19T19:57:58.385Z,11.40
2023-05-19T20:00:25.889Z,11.10
2023-05-19T20:03:03.686Z,11.40
2023-05-19T20:05:32.537Z,11.70
2023-05-19T20:07:59.556Z,11.20
2023-05-19T20:10:26.848Z,10.80
2023-05-19T20:12:54.538Z,10.90
2023-05-19T20:15:21.940Z,12.00
2023-05-19T20:17:49.324Z,11.30
2023-05-19T20:20:16.930Z,11.60
2023-05-19T20:22:47.128Z,11.30
2023-05-19T20:25:14.789Z,10.30
2023-05-19T20:27:41.943Z,10.30
2023-05-19T20:30:09.798Z,10.90
2023-05-19T20:32:37.445Z,9.50
2023-05-19T20:35:05.340Z,10.80
2023-05-19T20:37:32.689Z,10.20
2023-05-19T20:39:59.816Z,10.10
2023-05-19T20:42:27.194Z,11.50
2023-05-19T20:44:54.655Z,10.90
2023-05-19T20:47:22.006Z,10.70
2023-05-19T20:49:49.564Z,12.00
2023-05-19T20:52:17.132Z,11.00
2023-05-19T20:54:45.494Z,11.50
2023-05-19T20:57:12.958Z,10.80
2023-05-19T20:59:40.344Z,10.90
2023-05-19T21:02:08.603Z,10.00
2023-05-19T21:04:36.592Z,9.90
2023-05-19T21:07:04.001Z,10.70
2023-05-19T21:09:31.604Z,11.10
2023-05-19T21:11:59.080Z,10.40
2023-05-19T21:14:26.898Z,10.20
2023-05-19T21:16:54.691Z,10.70
2023-05-19T21:19:23.335Z,9.40
2023-05-19T21:21:51.428Z,9.90
2023-05-19T21:24:18.714Z,11.10
2023-05-19T21:26:46.286Z,9.80
2023-05-19T21:29:13.621Z,10.90
2023-05-19T21:31:41.346Z,10.90
2023-05-19T21:34:08.699Z,10.90
2023-05-19T21:36:36.360Z,11.80
2023-05-19T21:39:04.731Z,11.60
2023-05-19T21:41:32.809Z,10.30
2023-05-19T21:44:00.273Z,11.50
2023-05-19T21:46:29.418Z,11.10
2023-05-19T21:48:57.032Z,9.80
2023-05-19T21:51:24.278Z,10.20
2023-05-19T21:53:51.779Z,9.80
2023-05-19T21:56:19.295Z,9.50
2023-05-19T21:58:46.276Z,9.50
2023-05-19T22:01:14.625Z,9.90
2023-05-19T22:03:42.350Z,9.40
2023-05-19T22:06:09.742Z,9.80
2023-05-19T22:08:37.199Z,10.00
2023-05-19T22:11:05.158Z,10.50
2023-05-19T22:13:32.466Z,10.60
2023-05-19T22:16:00.242Z,10.30
2023-05-19T22:18:27.277Z,10.30
2023-05-19T22:20:54.581Z,10.70
2023-05-19T22:23:21.885Z,10.40
2023-05-19T22:25:49.409Z,10.10
2023-05-19T22:28:16.747Z,10.60
2023-05-19T22:30:44.623Z,12.40
2023-05-19T22:33:12.457Z,11.70
2023-05-19T22:35:39.834Z,11.40
2023-05-19T22:38:08.822Z,11.80
2023-05-19T22:40:38.155Z,12.40
2023-05-19T22:43:05.368Z,11.70
2023-05-19T22:45:34.084Z,11.50
2023-05-19T22:48:02.087Z,12.00
2023-05-19T22:50:29.170Z,11.80
2023-05-19T22:52:56.473Z,11.90
2023-05-19T22:55:23.779Z,11.70
2023-05-19T22:57:51.751Z,12.90
2023-05-19T23:00:21.258Z,15.10
2023-05-19T23:02:48.676Z,16.80
2023-05-19T23:05:19.040Z,16.90
2023-05-19T23:07:46.179Z,26.70
2023-05-19T23:10:13.329Z,31.80
2023-05-19T23:12:40.478Z,34.50
2023-05-19T23:15:08.857Z,31.80
2023-05-19T23:17:36.554Z,34.00
2023-05-19T23:20:04.592Z,24.80
2023-05-19T23:22:31.744Z,23.50
2023-05-19T23:24:59.235Z,29.30
2023-05-19T23:27:26.962Z,30.30
2023-05-19T23:29:54.622Z,29.60
2023-05-19T23:32:23.028Z,28.30
2023-05-19T23:34:50.046Z,26.10
2023-05-19T23:37:17.506Z,28.90
2023-05-19T23:39:44.654Z,30.20
2023-05-19T23:42:13.544Z,29.50
2023-05-19T23:44:40.900Z,29.60
2023-05-19T23:47:08.423Z,31.50
2023-05-19T23:49:36.123Z,30.70
2023-05-19T23:52:03.438Z,36.60
2023-05-19T23:54:31.474Z,35.80
2023-05-19T23:56:58.906Z,36.50
2023-05-19T23:59:26.269Z,36.70
